sensor_id;sensor_type;location;lat;lon;timestamp;P1;durP1;ratioP1;P2;durP2;ratioP2
76262;SDS011;65080;50.908;6.916;2023-04-24T00:00:37;1.00;;;0.80;;
76262;SDS011;65080;50.908;6.916;2023-04-24T00:03:07;1.43;;;1.00;;
76262;SDS011;65080;50.908;6.916;2023-04-24T00:05:37;1.30;;;1.00;;
76262;SDS011;65080;50.908;6.916;2023-04-24T00:08:06;1.40;;;0.90;;
76262;SDS011;65080;50.908;6.916;2023-04-24T00:10:34;1.23;;;0.90;;
76262;SDS011;65080;50.908;6.916;2023-04-24T00:13:03;1.40;;;0.97;;
76262;SDS011;65080;50.908;6.916;2023-04-24T00:15:32;1.03;;;0.97;;
76262;SDS011;65080;50.908;6.916;2023-04-24T00:18:00;0.90;;;0.80;;
76262;SDS011;65080;50.908;6.916;2023-04-24T00:20:29;1.20;;;1.10;;
76262;SDS011;65080;50.908;6.916;2023-04-24T00:23:00;1.13;;;0.90;;
76262;SDS011;65080;50.908;6.916;2023-04-24T00:25:28;1.23;;;1.00;;
76262;SDS011;65080;50.908;6.916;2023-04-24T00:27:56;1.20;;;1.00;;
76262;SDS011;65080;50.908;6.916;2023-04-24T00:30:25;1.10;;;0.97;;
76262;SDS011;65080;50.908;6.916;2023-04-24T00:32:53;1.90;;;1.10;;
76262;SDS011;65080;50.908;6.916;2023-04-24T00:35:21;1.20;;;1.00;;
76262;SDS011;65080;50.908;6.916;2023-04-24T00:37:49;1.40;;;1.20;;
76262;SDS011;65080;50.908;6.916;2023-04-24T00:40:19;4.50;;;1.10;;
76262;SDS011;65080;50.908;6.916;2023-04-24T00:42:47;1.70;;;1.30;;
76262;SDS011;65080;50.908;6.916;2023-04-24T00:45:16;1.30;;;1.10;;
76262;SDS011;65080;50.908;6.916;2023-04-24T00:47:45;3.33;;;1.40;;
76262;SDS011;65080;50.908;6.916;2023-04-24T00:50:14;3.13;;;1.00;;
76262;SDS011;65080;50.908;6.916;2023-04-24T00:52:43;5.70;;;1.17;;
76262;SDS011;65080;50.908;6.916;2023-04-24T00:55:11;1.03;;;0.90;;
76262;SDS011;65080;50.908;6.916;2023-04-24T00:57:41;2.00;;;1.10;;
76262;SDS011;65080;50.908;6.916;2023-04-24T01:00:10;1.23;;;1.10;;
76262;SDS011;65080;50.908;6.916;2023-04-24T01:02:39;1.33;;;1.10;;
76262;SDS011;65080;50.908;6.916;2023-04-24T01:05:10;2.00;;;1.10;;
76262;SDS011;65080;50.908;6.916;2023-04-24T01:07:40;1.50;;;1.03;;
76262;SDS011;65080;50.908;6.916;2023-04-24T01:10:12;1.27;;;1.17;;
76262;SDS011;65080;50.908;6.916;2023-04-24T01:12:43;1.67;;;1.33;;
76262;SDS011;65080;50.908;6.916;2023-04-24T01:15:11;3.33;;;1.40;;
76262;SDS011;65080;50.908;6.916;2023-04-24T01:17:39;1.73;;;1.20;;
76262;SDS011;65080;50.908;6.916;2023-04-24T01:20:08;5.20;;;1.10;;
76262;SDS011;65080;50.908;6.916;2023-04-24T01:22:39;4.03;;;1.70;;
76262;SDS011;65080;50.908;6.916;2023-04-24T01:25:08;4.70;;;1.53;;
76262;SDS011;65080;50.908;6.916;2023-04-24T01:27:36;2.10;;;1.60;;
76262;SDS011;65080;50.908;6.916;2023-04-24T01:30:05;3.70;;;1.70;;
76262;SDS011;65080;50.908;6.916;2023-04-24T01:32:35;2.33;;;1.23;;
76262;SDS011;65080;50.908;6.916;2023-04-24T01:35:05;2.50;;;1.40;;
76262;SDS011;65080;50.908;6.916;2023-04-24T01:37:34;3.83;;;1.70;;
76262;SDS011;65080;50.908;6.916;2023-04-24T01:40:06;2.30;;;1.40;;
76262;SDS011;65080;50.908;6.916;2023-04-24T01:42:35;2.97;;;2.30;;
76262;SDS011;65080;50.908;6.916;2023-04-24T01:45:04;2.43;;;2.23;;
76262;SDS011;65080;50.908;6.916;2023-04-24T01:47:33;3.83;;;3.03;;
76262;SDS011;65080;50.908;6.916;2023-04-24T01:50:01;3.33;;;2.40;;
76262;SDS011;65080;50.908;6.916;2023-04-24T01:52:32;3.17;;;2.67;;
76262;SDS011;65080;50.908;6.916;2023-04-24T01:55:02;3.57;;;2.70;;
76262;SDS011;65080;50.908;6.916;2023-04-24T01:57:33;3.77;;;2.10;;
76262;SDS011;65080;50.908;6.916;2023-04-24T02:00:03;3.40;;;2.87;;
76262;SDS011;65080;50.908;6.916;2023-04-24T02:02:33;4.30;;;3.10;;
76262;SDS011;65080;50.908;6.916;2023-04-24T02:05:02;3.30;;;3.00;;
76262;SDS011;65080;50.908;6.916;2023-04-24T02:07:30;4.83;;;2.90;;
76262;SDS011;65080;50.908;6.916;2023-04-24T02:09:59;5.53;;;3.13;;
76262;SDS011;65080;50.908;6.916;2023-04-24T02:12:27;3.73;;;2.97;;
76262;SDS011;65080;50.908;6.916;2023-04-24T02:14:57;4.50;;;3.47;;
76262;SDS011;65080;50.908;6.916;2023-04-24T02:17:25;5.00;;;3.67;;
76262;SDS011;65080;50.908;6.916;2023-04-24T02:19:54;3.47;;;3.17;;
76262;SDS011;65080;50.908;6.916;2023-04-24T02:22:22;4.87;;;3.60;;
76262;SDS011;65080;50.908;6.916;2023-04-24T02:24:50;4.03;;;3.50;;
76262;SDS011;65080;50.908;6.916;2023-04-24T02:27:18;5.00;;;3.50;;
76262;SDS011;65080;50.908;6.916;2023-04-24T02:29:47;5.50;;;4.30;;
76262;SDS011;65080;50.908;6.916;2023-04-24T02:32:16;4.93;;;3.40;;
76262;SDS011;65080;50.908;6.916;2023-04-24T02:34:45;3.83;;;3.37;;
76262;SDS011;65080;50.908;6.916;2023-04-24T02:37:13;5.73;;;3.97;;
76262;SDS011;65080;50.908;6.916;2023-04-24T02:39:41;4.57;;;3.87;;
76262;SDS011;65080;50.908;6.916;2023-04-24T02:42:10;4.03;;;3.70;;
76262;SDS011;65080;50.908;6.916;2023-04-24T02:44:38;4.30;;;3.67;;
76262;SDS011;65080;50.908;6.916;2023-04-24T02:47:07;5.50;;;4.27;;
76262;SDS011;65080;50.908;6.916;2023-04-24T02:49:36;5.20;;;4.20;;
76262;SDS011;65080;50.908;6.916;2023-04-24T02:52:05;7.23;;;4.50;;
76262;SDS011;65080;50.908;6.916;2023-04-24T02:54:33;8.03;;;4.80;;
76262;SDS011;65080;50.908;6.916;2023-04-24T02:57:01;6.63;;;4.93;;
76262;SDS011;65080;50.908;6.916;2023-04-24T02:59:30;8.70;;;6.07;;
76262;SDS011;65080;50.908;6.916;2023-04-24T03:01:58;7.80;;;5.33;;
76262;SDS011;65080;50.908;6.916;2023-04-24T03:04:27;7.17;;;5.80;;
76262;SDS011;65080;50.908;6.916;2023-04-24T03:06:57;7.47;;;6.00;;
76262;SDS011;65080;50.908;6.916;2023-04-24T03:09:26;8.10;;;4.67;;
76262;SDS011;65080;50.908;6.916;2023-04-24T03:11:54;7.00;;;5.80;;
76262;SDS011;65080;50.908;6.916;2023-04-24T03:14:23;7.77;;;6.07;;
76262;SDS011;65080;50.908;6.916;2023-04-24T03:16:51;7.40;;;5.27;;
76262;SDS011;65080;50.908;6.916;2023-04-24T03:19:19;10.20;;;5.10;;
76262;SDS011;65080;50.908;6.916;2023-04-24T03:21:48;6.80;;;4.53;;
76262;SDS011;65080;50.908;6.916;2023-04-24T03:24:17;7.77;;;5.97;;
76262;SDS011;65080;50.908;6.916;2023-04-24T03:26:47;7.17;;;4.87;;
76262;SDS011;65080;50.908;6.916;2023-04-24T03:29:15;7.47;;;5.00;;
76262;SDS011;65080;50.908;6.916;2023-04-24T03:31:43;6.00;;;5.13;;
76262;SDS011;65080;50.908;6.916;2023-04-24T03:34:11;7.40;;;4.97;;
76262;SDS011;65080;50.908;6.916;2023-04-24T03:36:40;5.70;;;4.80;;
76262;SDS011;65080;50.908;6.916;2023-04-24T03:39:08;7.83;;;5.97;;
76262;SDS011;65080;50.908;6.916;2023-04-24T03:41:38;5.77;;;5.10;;
76262;SDS011;65080;50.908;6.916;2023-04-24T03:44:06;6.80;;;5.20;;
76262;SDS011;65080;50.908;6.916;2023-04-24T03:46:34;9.27;;;5.50;;
76262;SDS011;65080;50.908;6.916;2023-04-24T03:49:03;6.70;;;4.70;;
76262;SDS011;65080;50.908;6.916;2023-04-24T03:51:31;7.33;;;5.60;;
76262;SDS011;65080;50.908;6.916;2023-04-24T03:53:59;5.50;;;4.90;;
76262;SDS011;65080;50.908;6.916;2023-04-24T03:56:27;8.10;;;5.40;;
76262;SDS011;65080;50.908;6.916;2023-04-24T03:58:57;5.87;;;5.20;;
76262;SDS011;65080;50.908;6.916;2023-04-24T04:01:26;6.30;;;4.93;;
76262;SDS011;65080;50.908;6.916;2023-04-24T04:03:54;5.57;;;4.57;;
76262;SDS011;65080;50.908;6.916;2023-04-24T04:06:23;9.17;;;4.47;;
76262;SDS011;65080;50.908;6.916;2023-04-24T04:08:51;8.40;;;5.63;;
76262;SDS011;65080;50.908;6.916;2023-04-24T04:11:19;7.57;;;4.90;;
76262;SDS011;65080;50.908;6.916;2023-04-24T04:13:48;7.80;;;4.97;;
76262;SDS011;65080;50.908;6.916;2023-04-24T04:16:17;5.47;;;4.47;;
76262;SDS011;65080;50.908;6.916;2023-04-24T04:18:46;6.10;;;5.00;;
76262;SDS011;65080;50.908;6.916;2023-04-24T04:21:14;9.33;;;4.60;;
76262;SDS011;65080;50.908;6.916;2023-04-24T04:23:42;6.50;;;5.03;;
76262;SDS011;65080;50.908;6.916;2023-04-24T04:26:11;7.73;;;5.63;;
76262;SDS011;65080;50.908;6.916;2023-04-24T04:28:40;6.33;;;5.50;;
76262;SDS011;65080;50.908;6.916;2023-04-24T04:31:08;5.20;;;4.53;;
76262;SDS011;65080;50.908;6.916;2023-04-24T04:33:37;7.67;;;4.87;;
76262;SDS011;65080;50.908;6.916;2023-04-24T04:36:06;5.13;;;4.63;;
76262;SDS011;65080;50.908;6.916;2023-04-24T04:38:35;8.37;;;5.67;;
76262;SDS011;65080;50.908;6.916;2023-04-24T04:41:03;5.63;;;4.90;;
76262;SDS011;65080;50.908;6.916;2023-04-24T04:43:32;6.20;;;4.47;;
76262;SDS011;65080;50.908;6.916;2023-04-24T04:46:01;8.33;;;5.03;;
76262;SDS011;65080;50.908;6.916;2023-04-24T04:48:30;5.97;;;4.70;;
76262;SDS011;65080;50.908;6.916;2023-04-24T04:51:00;9.80;;;4.80;;
76262;SDS011;65080;50.908;6.916;2023-04-24T04:53:28;5.10;;;4.53;;
76262;SDS011;65080;50.908;6.916;2023-04-24T04:55:59;5.17;;;4.23;;
76262;SDS011;65080;50.908;6.916;2023-04-24T04:58:27;6.03;;;4.73;;
76262;SDS011;65080;50.908;6.916;2023-04-24T05:00:56;7.07;;;5.23;;
76262;SDS011;65080;50.908;6.916;2023-04-24T05:03:24;6.23;;;4.47;;
76262;SDS011;65080;50.908;6.916;2023-04-24T05:05:53;5.60;;;4.97;;
76262;SDS011;65080;50.908;6.916;2023-04-24T05:08:23;6.07;;;4.93;;
76262;SDS011;65080;50.908;6.916;2023-04-24T05:10:53;10.87;;;5.33;;
76262;SDS011;65080;50.908;6.916;2023-04-24T05:13:21;6.60;;;5.03;;
76262;SDS011;65080;50.908;6.916;2023-04-24T05:16:05;9.73;;;5.10;;
76262;SDS011;65080;50.908;6.916;2023-04-24T05:18:34;6.17;;;5.03;;
76262;SDS011;65080;50.908;6.916;2023-04-24T05:21:02;6.37;;;4.80;;
76262;SDS011;65080;50.908;6.916;2023-04-24T05:23:32;6.03;;;4.67;;
76262;SDS011;65080;50.908;6.916;2023-04-24T05:26:00;8.40;;;5.30;;
76262;SDS011;65080;50.908;6.916;2023-04-24T05:28:31;6.00;;;4.60;;
76262;SDS011;65080;50.908;6.916;2023-04-24T05:31:00;5.43;;;4.93;;
76262;SDS011;65080;50.908;6.916;2023-04-24T05:33:28;7.73;;;5.30;;
76262;SDS011;65080;50.908;6.916;2023-04-24T05:35:57;7.40;;;5.73;;
76262;SDS011;65080;50.908;6.916;2023-04-24T05:38:25;7.53;;;5.60;;
76262;SDS011;65080;50.908;6.916;2023-04-24T05:40:55;7.97;;;4.23;;
76262;SDS011;65080;50.908;6.916;2023-04-24T05:43:23;6.63;;;5.00;;
76262;SDS011;65080;50.908;6.916;2023-04-24T05:45:52;8.07;;;5.10;;
76262;SDS011;65080;50.908;6.916;2023-04-24T05:48:21;6.83;;;5.13;;
76262;SDS011;65080;50.908;6.916;2023-04-24T05:50:50;6.83;;;5.73;;
76262;SDS011;65080;50.908;6.916;2023-04-24T05:53:19;9.00;;;5.00;;
76262;SDS011;65080;50.908;6.916;2023-04-24T05:55:47;7.60;;;4.70;;
76262;SDS011;65080;50.908;6.916;2023-04-24T05:58:17;7.80;;;5.13;;
76262;SDS011;65080;50.908;6.916;2023-04-24T06:00:46;7.17;;;5.60;;
76262;SDS011;65080;50.908;6.916;2023-04-24T06:03:14;6.67;;;5.97;;
76262;SDS011;65080;50.908;6.916;2023-04-24T06:05:43;7.93;;;5.50;;
76262;SDS011;65080;50.908;6.916;2023-04-24T06:08:11;9.13;;;6.00;;
76262;SDS011;65080;50.908;6.916;2023-04-24T06:10:40;10.00;;;5.77;;
76262;SDS011;65080;50.908;6.916;2023-04-24T06:13:08;8.10;;;5.93;;
76262;SDS011;65080;50.908;6.916;2023-04-24T06:15:39;7.90;;;5.10;;
76262;SDS011;65080;50.908;6.916;2023-04-24T06:18:07;5.90;;;4.90;;
76262;SDS011;65080;50.908;6.916;2023-04-24T06:20:36;7.50;;;4.40;;
76262;SDS011;65080;50.908;6.916;2023-04-24T06:23:05;4.33;;;3.37;;
76262;SDS011;65080;50.908;6.916;2023-04-24T06:25:33;3.73;;;2.60;;
76262;SDS011;65080;50.908;6.916;2023-04-24T06:28:01;2.70;;;2.30;;
76262;SDS011;65080;50.908;6.916;2023-04-24T06:30:30;2.07;;;1.87;;
76262;SDS011;65080;50.908;6.916;2023-04-24T06:32:59;1.97;;;1.73;;
76262;SDS011;65080;50.908;6.916;2023-04-24T06:35:45;3.80;;;2.40;;
76262;SDS011;65080;50.908;6.916;2023-04-24T06:38:13;3.80;;;2.23;;
76262;SDS011;65080;50.908;6.916;2023-04-24T06:40:42;4.87;;;2.13;;
76262;SDS011;65080;50.908;6.916;2023-04-24T06:43:10;4.30;;;2.30;;
76262;SDS011;65080;50.908;6.916;2023-04-24T06:45:39;1.60;;;1.50;;
76262;SDS011;65080;50.908;6.916;2023-04-24T06:48:09;3.50;;;2.10;;
76262;SDS011;65080;50.908;6.916;2023-04-24T06:50:37;4.80;;;1.80;;
76262;SDS011;65080;50.908;6.916;2023-04-24T06:53:06;2.63;;;2.00;;
76262;SDS011;65080;50.908;6.916;2023-04-24T06:55:35;2.33;;;2.00;;
76262;SDS011;65080;50.908;6.916;2023-04-24T06:58:03;6.30;;;3.50;;
76262;SDS011;65080;50.908;6.916;2023-04-24T07:00:32;3.00;;;2.27;;
76262;SDS011;65080;50.908;6.916;2023-04-24T07:03:01;6.33;;;2.77;;
76262;SDS011;65080;50.908;6.916;2023-04-24T07:05:32;2.00;;;1.87;;
76262;SDS011;65080;50.908;6.916;2023-04-24T07:08:02;2.37;;;2.00;;
76262;SDS011;65080;50.908;6.916;2023-04-24T07:10:31;1.97;;;1.77;;
76262;SDS011;65080;50.908;6.916;2023-04-24T07:13:02;1.90;;;1.70;;
76262;SDS011;65080;50.908;6.916;2023-04-24T07:15:30;3.43;;;1.93;;
76262;SDS011;65080;50.908;6.916;2023-04-24T07:17:59;2.90;;;1.50;;
76262;SDS011;65080;50.908;6.916;2023-04-24T07:20:33;1.90;;;1.60;;
76262;SDS011;65080;50.908;6.916;2023-04-24T07:23:02;2.97;;;2.37;;
76262;SDS011;65080;50.908;6.916;2023-04-24T07:25:30;3.77;;;2.57;;
76262;SDS011;65080;50.908;6.916;2023-04-24T07:27:59;3.00;;;2.70;;
76262;SDS011;65080;50.908;6.916;2023-04-24T07:30:27;2.50;;;2.07;;
76262;SDS011;65080;50.908;6.916;2023-04-24T07:32:56;2.80;;;2.07;;
76262;SDS011;65080;50.908;6.916;2023-04-24T07:35:24;4.27;;;2.07;;
76262;SDS011;65080;50.908;6.916;2023-04-24T07:37:54;3.50;;;1.80;;
76262;SDS011;65080;50.908;6.916;2023-04-24T07:40:23;3.00;;;1.73;;
76262;SDS011;65080;50.908;6.916;2023-04-24T07:42:51;2.20;;;1.87;;
76262;SDS011;65080;50.908;6.916;2023-04-24T07:45:19;3.70;;;1.73;;
76262;SDS011;65080;50.908;6.916;2023-04-24T07:47:50;2.77;;;1.33;;
76262;SDS011;65080;50.908;6.916;2023-04-24T07:50:19;3.10;;;1.60;;
76262;SDS011;65080;50.908;6.916;2023-04-24T07:52:47;1.50;;;1.33;;
76262;SDS011;65080;50.908;6.916;2023-04-24T07:55:17;2.53;;;1.43;;
76262;SDS011;65080;50.908;6.916;2023-04-24T07:57:49;1.67;;;1.40;;
76262;SDS011;65080;50.908;6.916;2023-04-24T08:00:17;1.90;;;1.43;;
76262;SDS011;65080;50.908;6.916;2023-04-24T08:02:47;4.83;;;2.47;;
76262;SDS011;65080;50.908;6.916;2023-04-24T08:05:16;3.17;;;1.90;;
76262;SDS011;65080;50.908;6.916;2023-04-24T08:07:45;3.00;;;2.00;;
76262;SDS011;65080;50.908;6.916;2023-04-24T08:10:16;4.93;;;2.30;;
76262;SDS011;65080;50.908;6.916;2023-04-24T08:12:44;4.93;;;2.40;;
76262;SDS011;65080;50.908;6.916;2023-04-24T08:15:13;3.47;;;2.70;;
76262;SDS011;65080;50.908;6.916;2023-04-24T08:17:41;5.10;;;2.07;;
76262;SDS011;65080;50.908;6.916;2023-04-24T08:20:10;3.03;;;2.40;;
76262;SDS011;65080;50.908;6.916;2023-04-24T08:22:41;5.57;;;2.47;;
76262;SDS011;65080;50.908;6.916;2023-04-24T08:25:10;2.67;;;1.70;;
76262;SDS011;65080;50.908;6.916;2023-04-24T08:27:40;3.83;;;2.20;;
76262;SDS011;65080;50.908;6.916;2023-04-24T08:30:09;2.70;;;1.73;;
76262;SDS011;65080;50.908;6.916;2023-04-24T08:32:38;3.77;;;1.43;;
76262;SDS011;65080;50.908;6.916;2023-04-24T08:35:06;4.20;;;1.10;;
76262;SDS011;65080;50.908;6.916;2023-04-24T08:37:36;1.40;;;1.30;;
76262;SDS011;65080;50.908;6.916;2023-04-24T08:40:06;4.00;;;1.13;;
76262;SDS011;65080;50.908;6.916;2023-04-24T08:42:43;3.63;;;1.43;;
76262;SDS011;65080;50.908;6.916;2023-04-24T08:45:12;6.10;;;1.93;;
76262;SDS011;65080;50.908;6.916;2023-04-24T08:47:41;3.23;;;1.90;;
76262;SDS011;65080;50.908;6.916;2023-04-24T08:50:10;2.17;;;1.97;;
76262;SDS011;65080;50.908;6.916;2023-04-24T08:52:39;4.47;;;2.20;;
76262;SDS011;65080;50.908;6.916;2023-04-24T08:55:09;5.30;;;2.60;;
76262;SDS011;65080;50.908;6.916;2023-04-24T08:57:37;6.60;;;3.10;;
76262;SDS011;65080;50.908;6.916;2023-04-24T09:00:10;5.60;;;2.87;;
76262;SDS011;65080;50.908;6.916;2023-04-24T09:02:39;4.20;;;3.27;;
76262;SDS011;65080;50.908;6.916;2023-04-24T09:05:10;6.43;;;3.53;;
76262;SDS011;65080;50.908;6.916;2023-04-24T09:07:41;5.63;;;3.70;;
76262;SDS011;65080;50.908;6.916;2023-04-24T09:10:12;8.10;;;4.00;;
76262;SDS011;65080;50.908;6.916;2023-04-24T09:12:41;4.57;;;2.97;;
76262;SDS011;65080;50.908;6.916;2023-04-24T09:15:12;3.43;;;3.00;;
76262;SDS011;65080;50.908;6.916;2023-04-24T09:17:41;4.33;;;3.30;;
76262;SDS011;65080;50.908;6.916;2023-04-24T09:20:11;7.53;;;3.87;;
76262;SDS011;65080;50.908;6.916;2023-04-24T09:22:39;5.67;;;3.43;;
76262;SDS011;65080;50.908;6.916;2023-04-24T09:25:09;6.57;;;4.20;;
76262;SDS011;65080;50.908;6.916;2023-04-24T09:27:42;5.00;;;3.97;;
76262;SDS011;65080;50.908;6.916;2023-04-24T09:30:13;5.37;;;4.13;;
76262;SDS011;65080;50.908;6.916;2023-04-24T09:32:48;6.23;;;4.50;;
76262;SDS011;65080;50.908;6.916;2023-04-24T09:35:17;6.77;;;4.67;;
76262;SDS011;65080;50.908;6.916;2023-04-24T09:37:45;8.80;;;4.80;;
76262;SDS011;65080;50.908;6.916;2023-04-24T09:40:16;7.90;;;4.87;;
76262;SDS011;65080;50.908;6.916;2023-04-24T09:42:46;9.50;;;5.50;;
76262;SDS011;65080;50.908;6.916;2023-04-24T09:45:21;6.97;;;5.07;;
76262;SDS011;65080;50.908;6.916;2023-04-24T09:47:51;8.87;;;5.50;;
76262;SDS011;65080;50.908;6.916;2023-04-24T09:50:21;6.10;;;5.50;;
76262;SDS011;65080;50.908;6.916;2023-04-24T09:52:55;9.23;;;5.50;;
76262;SDS011;65080;50.908;6.916;2023-04-24T09:55:25;12.60;;;6.20;;
76262;SDS011;65080;50.908;6.916;2023-04-24T09:57:54;9.00;;;6.27;;
76262;SDS011;65080;50.908;6.916;2023-04-24T10:00:26;7.67;;;6.47;;
76262;SDS011;65080;50.908;6.916;2023-04-24T10:02:56;9.10;;;5.70;;
76262;SDS011;65080;50.908;6.916;2023-04-24T10:05:28;9.27;;;5.63;;
76262;SDS011;65080;50.908;6.916;2023-04-24T10:07:59;7.30;;;5.93;;
76262;SDS011;65080;50.908;6.916;2023-04-24T10:10:29;8.37;;;5.87;;
76262;SDS011;65080;50.908;6.916;2023-04-24T10:12:58;7.53;;;4.83;;
76262;SDS011;65080;50.908;6.916;2023-04-24T10:15:29;7.30;;;4.30;;
76262;SDS011;65080;50.908;6.916;2023-04-24T10:17:58;7.70;;;5.00;;
76262;SDS011;65080;50.908;6.916;2023-04-24T10:20:28;5.80;;;4.17;;
76262;SDS011;65080;50.908;6.916;2023-04-24T10:22:57;5.73;;;3.87;;
76262;SDS011;65080;50.908;6.916;2023-04-24T10:25:27;5.90;;;4.23;;
76262;SDS011;65080;50.908;6.916;2023-04-24T10:27:57;8.10;;;4.07;;
76262;SDS011;65080;50.908;6.916;2023-04-24T10:30:26;8.37;;;3.97;;
76262;SDS011;65080;50.908;6.916;2023-04-24T10:33:01;7.37;;;3.80;;
76262;SDS011;65080;50.908;6.916;2023-04-24T10:35:31;5.40;;;3.67;;
76262;SDS011;65080;50.908;6.916;2023-04-24T10:38:02;6.10;;;3.90;;
76262;SDS011;65080;50.908;6.916;2023-04-24T10:40:33;7.60;;;4.10;;
76262;SDS011;65080;50.908;6.916;2023-04-24T10:43:03;6.60;;;4.17;;
76262;SDS011;65080;50.908;6.916;2023-04-24T10:45:34;8.07;;;4.30;;
76262;SDS011;65080;50.908;6.916;2023-04-24T10:48:03;5.97;;;4.00;;
76262;SDS011;65080;50.908;6.916;2023-04-24T10:50:43;5.60;;;4.03;;
76262;SDS011;65080;50.908;6.916;2023-04-24T10:53:14;11.40;;;4.17;;
76262;SDS011;65080;50.908;6.916;2023-04-24T10:55:45;8.20;;;4.00;;
76262;SDS011;65080;50.908;6.916;2023-04-24T10:58:15;8.87;;;4.33;;
76262;SDS011;65080;50.908;6.916;2023-04-24T11:00:54;12.60;;;6.07;;
76262;SDS011;65080;50.908;6.916;2023-04-24T11:03:25;7.40;;;4.10;;
76262;SDS011;65080;50.908;6.916;2023-04-24T11:05:56;10.23;;;4.13;;
76262;SDS011;65080;50.908;6.916;2023-04-24T11:08:29;8.60;;;3.97;;
76262;SDS011;65080;50.908;6.916;2023-04-24T11:11:03;13.90;;;4.27;;
76262;SDS011;65080;50.908;6.916;2023-04-24T11:16:36;9.23;;;3.73;;
76262;SDS011;65080;50.908;6.916;2023-04-24T11:19:18;8.13;;;4.03;;
76262;SDS011;65080;50.908;6.916;2023-04-24T11:21:55;15.73;;;4.00;;
76262;SDS011;65080;50.908;6.916;2023-04-24T11:24:27;9.97;;;4.73;;
76262;SDS011;65080;50.908;6.916;2023-04-24T11:26:58;10.43;;;4.50;;
76262;SDS011;65080;50.908;6.916;2023-04-24T11:29:38;7.37;;;4.33;;
76262;SDS011;65080;50.908;6.916;2023-04-24T11:32:16;6.80;;;4.10;;
76262;SDS011;65080;50.908;6.916;2023-04-24T11:34:46;13.40;;;5.33;;
76262;SDS011;65080;50.908;6.916;2023-04-24T11:37:16;13.10;;;5.83;;
76262;SDS011;65080;50.908;6.916;2023-04-24T11:39:44;10.00;;;5.20;;
76262;SDS011;65080;50.908;6.916;2023-04-24T11:42:14;8.97;;;5.07;;
76262;SDS011;65080;50.908;6.916;2023-04-24T11:44:43;15.13;;;5.73;;
76262;SDS011;65080;50.908;6.916;2023-04-24T11:47:13;7.60;;;4.97;;
76262;SDS011;65080;50.908;6.916;2023-04-24T11:49:43;7.57;;;4.47;;
76262;SDS011;65080;50.908;6.916;2023-04-24T11:52:15;9.77;;;4.33;;
76262;SDS011;65080;50.908;6.916;2023-04-24T11:54:47;5.60;;;3.30;;
76262;SDS011;65080;50.908;6.916;2023-04-24T11:57:18;6.17;;;3.70;;
76262;SDS011;65080;50.908;6.916;2023-04-24T11:59:48;7.77;;;3.90;;
76262;SDS011;65080;50.908;6.916;2023-04-24T12:02:22;7.10;;;4.23;;
76262;SDS011;65080;50.908;6.916;2023-04-24T12:04:51;7.23;;;4.20;;
76262;SDS011;65080;50.908;6.916;2023-04-24T12:07:21;7.73;;;3.90;;
76262;SDS011;65080;50.908;6.916;2023-04-24T12:09:54;7.07;;;4.10;;
76262;SDS011;65080;50.908;6.916;2023-04-24T12:12:25;12.70;;;5.13;;
76262;SDS011;65080;50.908;6.916;2023-04-24T12:14:55;9.03;;;4.13;;
76262;SDS011;65080;50.908;6.916;2023-04-24T12:17:26;8.53;;;4.23;;
76262;SDS011;65080;50.908;6.916;2023-04-24T12:19:57;11.30;;;4.00;;
76262;SDS011;65080;50.908;6.916;2023-04-24T12:22:27;5.13;;;4.13;;
76262;SDS011;65080;50.908;6.916;2023-04-24T12:24:57;9.53;;;4.30;;
76262;SDS011;65080;50.908;6.916;2023-04-24T12:27:30;7.53;;;3.63;;
76262;SDS011;65080;50.908;6.916;2023-04-24T12:30:00;7.20;;;4.03;;
76262;SDS011;65080;50.908;6.916;2023-04-24T12:32:33;12.00;;;4.23;;
76262;SDS011;65080;50.908;6.916;2023-04-24T12:35:04;9.80;;;3.63;;
76262;SDS011;65080;50.908;6.916;2023-04-24T12:37:33;10.33;;;3.40;;
76262;SDS011;65080;50.908;6.916;2023-04-24T12:40:04;8.43;;;4.20;;
76262;SDS011;65080;50.908;6.916;2023-04-24T12:42:34;8.40;;;2.97;;
76262;SDS011;65080;50.908;6.916;2023-04-24T12:45:04;12.67;;;3.43;;
76262;SDS011;65080;50.908;6.916;2023-04-24T12:47:35;6.50;;;3.27;;
76262;SDS011;65080;50.908;6.916;2023-04-24T12:50:04;9.80;;;4.13;;
76262;SDS011;65080;50.908;6.916;2023-04-24T12:52:33;9.60;;;3.33;;
76262;SDS011;65080;50.908;6.916;2023-04-24T12:55:02;6.60;;;3.03;;
76262;SDS011;65080;50.908;6.916;2023-04-24T12:57:31;6.70;;;2.83;;
76262;SDS011;65080;50.908;6.916;2023-04-24T13:00:00;7.90;;;3.40;;
76262;SDS011;65080;50.908;6.916;2023-04-24T13:02:29;6.00;;;3.63;;
76262;SDS011;65080;50.908;6.916;2023-04-24T13:04:59;8.87;;;4.17;;
76262;SDS011;65080;50.908;6.916;2023-04-24T13:07:28;6.27;;;4.20;;
76262;SDS011;65080;50.908;6.916;2023-04-24T13:09:57;10.57;;;4.30;;
76262;SDS011;65080;50.908;6.916;2023-04-24T13:12:25;8.53;;;4.27;;
76262;SDS011;65080;50.908;6.916;2023-04-24T13:14:53;5.90;;;3.40;;
76262;SDS011;65080;50.908;6.916;2023-04-24T13:17:22;8.17;;;4.97;;
76262;SDS011;65080;50.908;6.916;2023-04-24T13:19:50;10.83;;;4.67;;
76262;SDS011;65080;50.908;6.916;2023-04-24T13:22:21;10.17;;;4.63;;
76262;SDS011;65080;50.908;6.916;2023-04-24T13:24:49;9.77;;;5.13;;
76262;SDS011;65080;50.908;6.916;2023-04-24T13:27:18;11.23;;;5.00;;
76262;SDS011;65080;50.908;6.916;2023-04-24T13:29:46;10.60;;;4.50;;
76262;SDS011;65080;50.908;6.916;2023-04-24T13:32:14;16.83;;;7.17;;
76262;SDS011;65080;50.908;6.916;2023-04-24T13:34:43;10.33;;;5.20;;
76262;SDS011;65080;50.908;6.916;2023-04-24T13:37:11;7.90;;;4.70;;
76262;SDS011;65080;50.908;6.916;2023-04-24T13:39:41;7.43;;;4.33;;
76262;SDS011;65080;50.908;6.916;2023-04-24T13:42:09;6.33;;;4.43;;
76262;SDS011;65080;50.908;6.916;2023-04-24T13:44:37;8.93;;;4.30;;
76262;SDS011;65080;50.908;6.916;2023-04-24T13:47:06;7.40;;;3.80;;
76262;SDS011;65080;50.908;6.916;2023-04-24T13:49:34;13.97;;;5.40;;
76262;SDS011;65080;50.908;6.916;2023-04-24T13:52:02;7.97;;;4.40;;
76262;SDS011;65080;50.908;6.916;2023-04-24T13:54:31;12.47;;;4.50;;
76262;SDS011;65080;50.908;6.916;2023-04-24T13:57:01;16.57;;;5.00;;
76262;SDS011;65080;50.908;6.916;2023-04-24T13:59:29;10.30;;;4.40;;
76262;SDS011;65080;50.908;6.916;2023-04-24T14:01:57;7.47;;;4.30;;
76262;SDS011;65080;50.908;6.916;2023-04-24T14:04:26;8.37;;;3.53;;
76262;SDS011;65080;50.908;6.916;2023-04-24T14:06:54;7.83;;;4.17;;
76262;SDS011;65080;50.908;6.916;2023-04-24T14:09:23;8.00;;;4.23;;
76262;SDS011;65080;50.908;6.916;2023-04-24T14:11:51;13.33;;;5.00;;
76262;SDS011;65080;50.908;6.916;2023-04-24T14:14:21;10.53;;;4.30;;
76262;SDS011;65080;50.908;6.916;2023-04-24T14:16:49;5.40;;;4.00;;
76262;SDS011;65080;50.908;6.916;2023-04-24T14:19:17;9.63;;;3.80;;
76262;SDS011;65080;50.908;6.916;2023-04-24T14:21:46;6.47;;;3.53;;
76262;SDS011;65080;50.908;6.916;2023-04-24T14:24:14;9.53;;;4.37;;
76262;SDS011;65080;50.908;6.916;2023-04-24T14:26:43;8.77;;;3.77;;
76262;SDS011;65080;50.908;6.916;2023-04-24T14:29:11;5.67;;;3.40;;
76262;SDS011;65080;50.908;6.916;2023-04-24T14:31:42;10.00;;;3.97;;
76262;SDS011;65080;50.908;6.916;2023-04-24T14:34:11;8.93;;;3.70;;
76262;SDS011;65080;50.908;6.916;2023-04-24T14:36:41;6.40;;;3.00;;
76262;SDS011;65080;50.908;6.916;2023-04-24T14:39:09;7.93;;;3.60;;
76262;SDS011;65080;50.908;6.916;2023-04-24T14:41:38;6.07;;;3.07;;
76262;SDS011;65080;50.908;6.916;2023-04-24T14:44:06;8.50;;;3.70;;
76262;SDS011;65080;50.908;6.916;2023-04-24T14:46:35;7.57;;;3.40;;
76262;SDS011;65080;50.908;6.916;2023-04-24T14:49:05;12.33;;;4.03;;
76262;SDS011;65080;50.908;6.916;2023-04-24T14:51:36;6.20;;;3.07;;
76262;SDS011;65080;50.908;6.916;2023-04-24T14:54:04;6.13;;;3.47;;
76262;SDS011;65080;50.908;6.916;2023-04-24T14:56:32;10.53;;;3.77;;
76262;SDS011;65080;50.908;6.916;2023-04-24T14:59:00;5.00;;;3.07;;
76262;SDS011;65080;50.908;6.916;2023-04-24T15:01:30;10.03;;;3.97;;